createdAt,value
2018-09-20T00:01:14.702Z,94330.19
2018-09-20T00:03:42.286Z,94332.84
2018-09-20T00:06:09.861Z,94334.55
2018-09-20T00:08:37.375Z,94333.73
2018-09-20T00:11:04.882Z,94333.95
2018-09-20T00:13:32.440Z,94335.79
2018-09-20T00:15:59.969Z,94335.48
2018-09-20T00:18:27.784Z,94339.17
2018-09-20T00:20:55.303Z,94333.30
2018-09-20T00:23:22.870Z,94332.09
2018-09-20T00:25:50.418Z,94340.36
2018-09-20T00:28:17.938Z,94331.95
2018-09-20T00:30:45.513Z,94336.09
2018-09-20T00:33:13.053Z,94332.11
2018-09-20T00:35:40.586Z,94334.33
2018-09-20T00:38:08.469Z,94332.55
2018-09-20T00:40:35.987Z,94338.30
2018-09-20T00:43:03.529Z,94332.86
2018-09-20T00:45:32.422Z,94331.08
2018-09-20T00:47:59.938Z,94330.50
2018-09-20T00:50:27.475Z,94322.41
2018-09-20T00:52:55.058Z,94329.30
2018-09-20T00:55:22.668Z,94326.66
2018-09-20T00:57:50.191Z,94324.73
2018-09-20T01:00:17.754Z,94316.22
2018-09-20T01:02:45.322Z,94323.56
2018-09-20T01:05:12.851Z,94316.34
2018-09-20T01:07:40.489Z,94319.66
2018-09-20T01:10:08.018Z,94316.49
2018-09-20T01:12:36.607Z,94315.02
2018-09-20T01:15:04.710Z,94312.97
2018-09-20T01:17:32.219Z,94315.47
2018-09-20T01:19:59.780Z,94311.64
2018-09-20T01:22:27.294Z,94313.70
2018-09-20T01:24:54.879Z,94312.22
2018-09-20T01:27:22.397Z,94320.14
2018-09-20T01:29:49.902Z,94311.62
2018-09-20T01:32:17.461Z,94310.59
2018-09-20T01:34:44.992Z,94308.69
2018-09-20T01:37:12.518Z,94306.10
2018-09-20T01:39:40.075Z,94304.78
2018-09-20T01:42:07.585Z,94298.52
2018-09-20T01:44:35.111Z,94298.06
2018-09-20T01:47:02.882Z,94302.28
2018-09-20T01:49:30.405Z,94299.03
2018-09-20T01:51:57.934Z,94304.27
2018-09-20T01:54:25.442Z,94306.32
2018-09-20T01:56:52.979Z,94299.19
2018-09-20T01:59:20.507Z,94307.00
2018-09-20T02:01:48.330Z,94307.73
2018-09-20T02:04:15.845Z,94304.23
2018-09-20T02:06:43.376Z,94301.70
2018-09-20T02:09:11.098Z,94301.97
2018-09-20T02:11:39.060Z,94306.15
2018-09-20T02:14:07.331Z,94305.88
2018-09-20T02:16:34.973Z,94305.11
2018-09-20T02:19:02.595Z,94302.47
2018-09-20T02:21:30.127Z,94309.85
2018-09-20T02:23:57.638Z,94309.39
2018-09-20T02:26:25.212Z,94304.40
2018-09-20T02:28:52.779Z,94301.28
2018-09-20T02:31:20.306Z,94302.16
2018-09-20T02:33:47.973Z,94308.14
2018-09-20T02:36:15.480Z,94303.09
2018-09-20T02:38:43.083Z,94307.59
2018-09-20T02:41:10.726Z,94310.25
2018-09-20T02:43:38.312Z,94305.95
2018-09-20T02:46:05.886Z,94305.04
2018-09-20T02:48:33.397Z,94304.33
2018-09-20T02:51:00.935Z,94301.98
2018-09-20T02:53:28.835Z,94305.48
2018-09-20T02:55:56.346Z,94298.56
2018-09-20T02:58:23.886Z,94300.15
2018-09-20T03:00:51.435Z,94300.60
2018-09-20T03:03:18.957Z,94303.39
2018-09-20T03:05:46.482Z,94297.63
2018-09-20T03:08:14.041Z,94298.64
2018-09-20T03:10:41.599Z,94292.77
2018-09-20T03:13:09.213Z,94293.19
2018-09-20T03:15:36.771Z,94298.48
2018-09-20T03:18:04.334Z,94299.08
2018-09-20T03:20:31.975Z,94296.84
2018-09-20T03:22:59.563Z,94300.71
2018-09-20T03:25:27.143Z,94300.78
2018-09-20T03:27:54.816Z,94301.80
2018-09-20T03:30:22.935Z,94309.73
2018-09-20T03:32:50.376Z,94303.56
2018-09-20T03:35:17.927Z,94300.98
2018-09-20T03:37:45.502Z,94307.22
2018-09-20T03:40:13.251Z,94305.26
2018-09-20T03:42:40.766Z,94307.30
2018-09-20T03:45:08.312Z,94300.51
2018-09-20T03:47:35.856Z,94303.59
2018-09-20T03:50:03.447Z,94302.27
2018-09-20T03:52:30.959Z,94301.59
2018-09-20T03:54:58.484Z,94306.36
2018-09-20T03:57:25.994Z,94304.43
2018-09-20T03:59:53.640Z,94307.78
2018-09-20T04:02:21.190Z,94302.32
2018-09-20T04:04:48.775Z,94304.39
2018-09-20T04:07:16.318Z,94304.39
2018-09-20T04:09:43.881Z,94306.39
2018-09-20T04:12:11.455Z,94299.09
2018-09-20T04:14:39.006Z,94303.77
2018-09-20T04:17:06.574Z,94306.42
2018-09-20T04:19:34.137Z,94307.44
2018-09-20T04:22:01.761Z,94305.07
2018-09-20T04:24:29.277Z,94310.05
2018-09-20T04:26:57.191Z,94306.39
2018-09-20T04:29:24.707Z,94308.80
2018-09-20T04:31:52.278Z,94306.82
2018-09-20T04:34:19.805Z,94307.45
2018-09-20T04:36:47.342Z,94305.02
2018-09-20T04:39:14.978Z,94308.80
2018-09-20T04:41:42.528Z,94306.72
2018-09-20T04:44:10.106Z,94310.33
2018-09-20T04:46:37.721Z,94310.91
2018-09-20T04:49:05.639Z,94313.50
2018-09-20T04:51:33.186Z,94319.19
2018-09-20T04:54:00.757Z,94315.97
2018-09-20T04:56:28.796Z,94324.16
2018-09-20T04:58:56.342Z,94318.78
2018-09-20T05:01:23.875Z,94324.34
2018-09-20T05:03:51.699Z,94324.45
2018-09-20T05:06:19.246Z,94324.66
2018-09-20T05:08:46.774Z,94322.75
2018-09-20T05:11:14.326Z,94328.63
2018-09-20T05:13:41.854Z,94323.23
2018-09-20T05:16:09.405Z,94321.48
2018-09-20T05:18:36.958Z,94326.72
2018-09-20T05:21:04.522Z,94326.61
2018-09-20T05:23:32.099Z,94325.67
2018-09-20T05:25:59.896Z,94318.66
2018-09-20T05:28:27.414Z,94317.22
2018-09-20T05:30:54.938Z,94325.14
2018-09-20T05:33:22.554Z,94321.66
2018-09-20T05:35:50.054Z,94322.08
2018-09-20T05:38:17.843Z,94331.20
2018-09-20T05:40:45.362Z,94329.72
2018-09-20T05:43:12.878Z,94333.16
2018-09-20T05:45:40.525Z,94322.21
2018-09-20T05:48:08.055Z,94325.19
2018-09-20T05:50:36.658Z,94329.38
2018-09-20T05:53:04.231Z,94328.24
2018-09-20T05:55:31.759Z,94329.22
2018-09-20T05:57:59.378Z,94331.80
2018-09-20T06:00:26.902Z,94335.27
2018-09-20T06:02:54.410Z,94328.06
2018-09-20T06:05:21.958Z,94332.09
2018-09-20T06:07:49.486Z,94330.63
2018-09-20T06:10:17.040Z,94337.56
2018-09-20T06:12:44.647Z,94334.58
2018-09-20T06:15:12.171Z,94326.09
2018-09-20T06:17:39.699Z,94326.98
2018-09-20T06:20:07.274Z,94327.16
2018-09-20T06:22:34.814Z,94331.08
2018-09-20T06:25:02.422Z,94336.02
2018-09-20T06:27:29.956Z,94332.00
2018-09-20T06:29:57.495Z,94336.84
2018-09-20T06:32:25.090Z,94335.22
2018-09-20T06:34:52.715Z,94329.51
2018-09-20T06:37:20.234Z,94330.65
2018-09-20T06:39:47.782Z,94337.41
2018-09-20T06:42:15.295Z,94337.77
2018-09-20T06:44:42.846Z,94343.34
2018-09-20T06:47:10.395Z,94338.77
2018-09-20T06:49:37.968Z,94345.17
2018-09-20T06:52:05.638Z,94347.66
2018-09-20T06:54:33.227Z,94340.09
2018-09-20T06:57:00.771Z,94338.84
2018-09-20T06:59:28.338Z,94343.76
2018-09-20T07:01:55.865Z,94341.62
2018-09-20T07:04:23.374Z,94343.27
2018-09-20T07:06:50.921Z,94339.33
2018-09-20T07:09:18.438Z,94339.05
2018-09-20T07:11:45.995Z,94339.02
2018-09-20T07:14:13.524Z,94335.29
2018-09-20T07:16:41.073Z,94340.16
2018-09-20T07:19:08.703Z,94345.70
2018-09-20T07:21:36.242Z,94337.70
2018-09-20T07:24:03.897Z,94345.49
2018-09-20T07:26:31.436Z,94342.91
2018-09-20T07:28:58.993Z,94337.58
2018-09-20T07:31:26.577Z,94338.75
2018-09-20T07:33:54.111Z,94341.93
2018-09-20T07:36:21.759Z,94334.97
2018-09-20T07:38:49.306Z,94343.69
2018-09-20T07:41:16.831Z,94336.31
2018-09-20T07:43:44.567Z,94340.28
2018-09-20T07:46:12.158Z,94340.97
2018-09-20T07:48:39.671Z,94341.87
2018-09-20T07:51:07.366Z,94341.37
2018-09-20T07:53:34.915Z,94340.49
2018-09-20T07:56:02.455Z,94345.05
2018-09-20T07:58:30.754Z,94338.27
2018-09-20T08:00:58.271Z,94343.25
2018-09-20T08:03:25.798Z,94339.33
2018-09-20T08:05:53.342Z,94336.80
2018-09-20T08:08:20.892Z,94338.41
2018-09-20T08:10:48.438Z,94337.81
2018-09-20T08:13:15.993Z,94337.16
2018-09-20T08:15:43.762Z,94331.86
2018-09-20T08:18:11.394Z,94336.82
2018-09-20T08:20:38.919Z,94341.09
2018-09-20T08:23:06.494Z,94333.30
2018-09-20T08:25:34.030Z,94334.56
2018-09-20T08:28:01.587Z,94333.91
2018-09-20T08:30:29.130Z,94333.34
2018-09-20T08:32:56.671Z,94334.47
2018-09-20T08:35:24.223Z,94336.03
2018-09-20T08:37:51.850Z,94334.59
2018-09-20T08:40:19.310Z,94337.68
2018-09-20T08:42:46.888Z,94331.17
2018-09-20T08:45:14.514Z,94327.91
2018-09-20T08:47:42.126Z,94327.69
2018-09-20T08:50:09.678Z,94324.95
2018-09-20T08:52:37.198Z,94331.30
2018-09-20T08:55:04.810Z,94328.58
2018-09-20T08:58:03.482Z,94322.64
2018-09-20T09:00:31.019Z,94324.27
2018-09-20T09:02:58.544Z,94324.16
2018-09-20T09:05:26.075Z,94321.77
2018-09-20T09:07:53.613Z,94324.47
2018-09-20T09:10:21.221Z,94324.30
2018-09-20T09:12:48.779Z,94317.39
2018-09-20T09:15:16.287Z,94312.59
2018-09-20T09:17:43.882Z,94311.78
2018-09-20T09:20:11.418Z,94309.64
2018-09-20T09:22:38.935Z,94311.33
2018-09-20T09:25:06.855Z,94305.55
2018-09-20T09:27:34.414Z,94307.14
2018-09-20T09:30:02.037Z,94300.20
2018-09-20T09:32:29.614Z,94302.72
2018-09-20T09:34:57.149Z,94296.78
2018-09-20T09:37:24.696Z,94289.41
2018-09-20T09:39:52.274Z,94292.16
2018-09-20T09:42:19.899Z,94293.09
2018-09-20T09:44:47.571Z,94290.67
2018-09-20T09:47:15.182Z,94292.30
2018-09-20T09:49:42.738Z,94287.75
2018-09-20T09:52:10.337Z,94295.98
2018-09-20T09:54:37.927Z,94285.33
2018-09-20T09:57:06.164Z,94287.63
2018-09-20T09:59:33.963Z,94287.33
2018-09-20T10:02:01.559Z,94283.22
2018-09-20T10:04:29.198Z,94286.66
2018-09-20T10:06:56.814Z,94283.20
2018-09-20T10:09:24.338Z,94285.58
2018-09-20T10:11:52.336Z,94272.94
2018-09-20T10:14:19.910Z,94275.39
2018-09-20T10:16:47.426Z,94269.87
2018-09-20T10:19:15.000Z,94266.09
2018-09-20T10:21:42.538Z,94267.50
2018-09-20T10:24:10.379Z,94258.20
2018-09-20T10:26:37.911Z,94260.91
2018-09-20T10:29:05.431Z,94254.77
2018-09-20T10:31:34.183Z,94264.76
2018-09-20T10:34:01.725Z,94258.42
2018-09-20T10:36:29.211Z,94249.89
2018-09-20T10:38:56.785Z,94250.89
2018-09-20T10:41:24.429Z,94249.59
2018-09-20T10:43:51.975Z,94244.02
2018-09-20T10:46:19.513Z,94240.52
2018-09-20T10:48:47.235Z,94243.27
2018-09-20T10:51:14.763Z,94236.93
2018-09-20T10:53:42.345Z,94244.50
2018-09-20T10:56:09.990Z,94234.23
2018-09-20T10:58:37.541Z,94236.66
2018-09-20T11:01:05.082Z,94230.86
2018-09-20T11:03:32.675Z,94237.73
2018-09-20T11:06:00.227Z,94231.70
2018-09-20T11:08:27.806Z,94221.23
2018-09-20T11:10:55.451Z,94224.41
2018-09-20T11:13:22.958Z,94224.63
2018-09-20T11:15:50.644Z,94218.41
2018-09-20T11:18:18.167Z,94216.75
2018-09-20T11:20:45.767Z,94215.98
2018-09-20T11:23:13.338Z,94216.01
2018-09-20T11:25:40.865Z,94218.53
2018-09-20T11:28:08.421Z,94217.41
2018-09-20T11:30:35.931Z,94204.42
2018-09-20T11:33:03.550Z,94204.98
2018-09-20T11:35:31.081Z,94203.21
2018-09-20T11:37:58.662Z,94201.09
2018-09-20T11:40:26.226Z,94203.41
2018-09-20T11:42:53.762Z,94199.06
2018-09-20T11:45:21.345Z,94193.97
2018-09-20T11:47:49.171Z,94190.95
2018-09-20T11:50:16.718Z,94185.52
2018-09-20T11:52:44.263Z,94181.28
2018-09-20T11:55:11.826Z,94180.02
2018-09-20T11:57:39.378Z,94178.91
2018-09-20T12:00:06.933Z,94168.63
2018-09-20T12:02:34.502Z,94169.86
2018-09-20T12:05:02.090Z,94169.25
2018-09-20T12:07:29.690Z,94158.84
2018-09-20T12:09:57.265Z,94155.10
2018-09-20T12:12:24.807Z,94153.86
2018-09-20T12:14:52.375Z,94154.04
2018-09-20T12:17:20.294Z,94151.48
2018-09-20T12:19:47.860Z,94149.97
2018-09-20T12:22:15.394Z,94150.09
2018-09-20T12:24:42.936Z,94147.98
2018-09-20T12:27:10.489Z,94151.33
2018-09-20T12:29:39.371Z,94143.98
2018-09-20T12:32:07.040Z,94138.94
2018-09-20T12:34:34.640Z,94144.12
2018-09-20T12:37:02.195Z,94146.15
2018-09-20T12:39:29.728Z,94138.70
2018-09-20T12:41:57.279Z,94138.57
2018-09-20T12:44:24.834Z,94133.09
2018-09-20T12:46:52.444Z,94131.20
2018-09-20T12:49:19.970Z,94128.12
2018-09-20T12:51:47.598Z,94121.48
2018-09-20T12:54:15.138Z,94117.42
2018-09-20T12:56:42.694Z,94113.97
2018-09-20T12:59:10.237Z,94113.23
2018-09-20T13:01:37.819Z,94104.37
2018-09-20T13:04:05.370Z,94105.91
2018-09-20T13:06:33.038Z,94105.37
2018-09-20T13:09:00.587Z,94096.13
2018-09-20T13:11:28.135Z,94108.81
2018-09-20T13:13:55.978Z,94105.52
2018-09-20T13:16:23.639Z,94105.70
2018-09-20T13:18:51.166Z,94100.10
2018-09-20T13:21:18.726Z,94094.31
2018-09-20T13:23:46.259Z,94085.27
2018-09-20T13:26:14.091Z,94083.94
2018-09-20T13:28:41.663Z,94091.36
2018-09-20T13:31:09.211Z,94085.95
2018-09-20T13:33:36.737Z,94081.69
2018-09-20T13:36:04.272Z,94082.81
2018-09-20T13:38:31.942Z,94081.84
2018-09-20T13:40:59.495Z,94077.49
2018-09-20T13:43:27.129Z,94073.73
2018-09-20T13:45:54.649Z,94077.12
2018-09-20T13:48:22.185Z,94074.45
2018-09-20T13:50:49.755Z,94066.20
2018-09-20T13:53:17.349Z,94060.36
2018-09-20T13:55:45.222Z,94070.13
2018-09-20T13:58:12.771Z,94065.67
2018-09-20T14:00:40.401Z,94066.73
2018-09-20T14:03:07.947Z,94055.02
2018-09-20T14:05:35.501Z,94056.00
2018-09-20T14:08:03.134Z,94059.09
2018-09-20T14:10:30.668Z,94050.03
2018-09-20T14:12:58.213Z,94048.64
2018-09-20T14:15:25.872Z,94049.61
2018-09-20T14:17:53.366Z,94049.13
2018-09-20T14:21:06.298Z,94049.20
2018-09-20T14:23:33.879Z,94044.50
2018-09-20T14:26:01.441Z,94046.33
2018-09-20T14:28:28.997Z,94044.06
2018-09-20T14:30:56.522Z,94044.42
2018-09-20T14:33:24.099Z,94036.60
2018-09-20T14:35:51.682Z,94037.89
2018-09-20T14:38:19.239Z,94042.75
2018-09-20T14:40:46.799Z,94041.30
2018-09-20T14:43:14.378Z,94023.52
2018-09-20T14:45:41.931Z,94025.44
2018-09-20T14:48:09.552Z,94020.71
2018-09-20T14:50:37.185Z,94021.30
2018-09-20T14:53:05.142Z,94017.41
2018-09-20T14:55:32.726Z,94013.81
2018-09-20T14:58:00.258Z,94019.11
2018-09-20T15:00:27.838Z,94009.61
2018-09-20T15:02:55.549Z,94014.01
2018-09-20T15:05:23.164Z,94007.42
2018-09-20T15:07:50.759Z,94010.19
2018-09-20T15:10:18.553Z,93999.49
2018-09-20T15:12:46.123Z,94002.25
2018-09-20T15:15:13.784Z,94006.68
2018-09-20T15:17:41.309Z,94001.96
2018-09-20T15:20:08.879Z,94005.57
2018-09-20T15:22:36.482Z,93999.35
2018-09-20T15:25:04.288Z,93995.30
2018-09-20T15:27:31.854Z,93991.23
2018-09-20T15:29:59.426Z,94001.03
2018-09-20T15:32:26.967Z,93989.34
2018-09-20T15:34:54.494Z,93990.61
2018-09-20T15:37:22.049Z,93993.03
2018-09-20T15:39:49.656Z,93986.00
2018-09-20T15:42:17.434Z,93982.43
2018-09-20T15:44:45.103Z,93984.61
2018-09-20T15:47:12.646Z,93980.48
2018-09-20T15:49:40.663Z,93978.02
2018-09-20T15:52:08.183Z,93981.75
2018-09-20T15:54:35.818Z,93970.77
2018-09-20T15:57:03.395Z,93974.16
2018-09-20T15:59:30.963Z,93972.55
2018-09-20T16:01:58.852Z,93976.91
2018-09-20T16:04:26.404Z,93976.78
2018-09-20T16:06:54.046Z,93970.08
2018-09-20T16:09:21.632Z,93969.60
2018-09-20T16:11:49.188Z,93971.93
2018-09-20T16:14:16.775Z,93970.88
2018-09-20T16:16:44.350Z,93968.20
2018-09-20T16:19:11.875Z,93971.84
2018-09-20T16:21:39.445Z,93965.51
2018-09-20T16:24:07.029Z,93962.97
2018-09-20T16:26:34.834Z,93967.80
2018-09-20T16:29:07.039Z,93968.52
2018-09-20T16:31:40.222Z,93959.97
2018-09-20T16:34:17.235Z,93958.08
2018-09-20T16:36:52.374Z,93951.70
2018-09-20T16:39:20.972Z,93955.61
2018-09-20T16:41:49.254Z,93944.56
2018-09-20T16:44:16.875Z,93954.54
2018-09-20T16:46:44.466Z,93946.02
2018-09-20T16:49:12.027Z,93947.36
2018-09-20T16:51:39.696Z,93946.95
2018-09-20T16:54:07.258Z,93940.59
2018-09-20T16:56:34.817Z,93945.28
2018-09-20T16:59:02.429Z,93941.55
2018-09-20T17:01:29.976Z,93942.47
2018-09-20T17:03:57.550Z,93948.94
2018-09-20T17:06:25.075Z,93944.53
2018-09-20T17:08:52.694Z,93946.49
2018-09-20T17:11:20.255Z,93953.01
2018-09-20T17:13:48.007Z,93947.63
2018-09-20T17:16:15.629Z,93944.53
2018-09-20T17:18:43.157Z,93950.02
2018-09-20T17:21:10.752Z,93950.13
2018-09-20T17:23:38.710Z,93951.77
2018-09-20T17:26:06.451Z,93949.19
2018-09-20T17:28:34.077Z,93953.00
2018-09-20T17:31:01.649Z,93954.39
2018-09-20T17:33:29.216Z,93954.08
2018-09-20T17:35:56.812Z,93954.48
2018-09-20T17:38:24.639Z,93949.52
2018-09-20T17:40:55.756Z,93954.84
2018-09-20T17:43:28.982Z,93957.03
2018-09-20T17:45:56.547Z,93962.48
2018-09-20T17:48:24.097Z,93961.05
2018-09-20T17:50:51.989Z,93962.18
2018-09-20T17:53:19.747Z,93961.72
2018-09-20T17:55:47.543Z,93969.03
2018-09-20T17:58:15.404Z,93968.83
2018-09-20T18:00:42.981Z,93978.99
2018-09-20T18:03:10.638Z,93977.97
2018-09-20T18:05:38.168Z,93976.88
2018-09-20T18:08:05.727Z,93981.17
2018-09-20T18:10:33.263Z,93979.55
2018-09-20T18:13:00.832Z,93979.00
2018-09-20T18:15:28.419Z,93982.48
2018-09-20T18:17:56.026Z,93983.31
2018-09-20T18:20:23.625Z,93976.58
2018-09-20T18:22:51.216Z,93974.73
2018-09-20T18:25:18.819Z,93975.53
2018-09-20T18:27:46.390Z,93977.95
2018-09-20T18:30:13.943Z,93980.09
2018-09-20T18:32:41.494Z,93979.02
2018-09-20T18:35:09.222Z,93979.80
2018-09-20T18:37:37.952Z,93980.56
2018-09-20T18:40:05.699Z,93978.91
2018-09-20T18:42:33.268Z,93980.94
2018-09-20T18:45:00.813Z,93978.27
2018-09-20T18:47:28.430Z,93989.47
2018-09-20T18:49:56.027Z,93985.17
2018-09-20T18:52:23.606Z,93985.21
2018-09-20T18:54:51.170Z,93986.83
2018-09-20T18:57:18.902Z,93984.36
2018-09-20T18:59:46.510Z,93979.17
2018-09-20T19:02:14.070Z,93982.79
2018-09-20T19:04:41.694Z,93982.71
2018-09-20T19:07:09.301Z,93985.33
2018-09-20T19:09:36.938Z,93982.59
2018-09-20T19:12:04.646Z,93981.19
2018-09-20T19:14:32.214Z,93988.56
2018-09-20T19:16:59.789Z,93983.12
2018-09-20T19:19:27.391Z,93985.09
2018-09-20T19:21:54.973Z,93989.27
2018-09-20T19:24:22.554Z,93983.94
2018-09-20T19:26:50.354Z,93977.95
2018-09-20T19:29:17.943Z,93974.20
2018-09-20T19:31:46.540Z,93970.64
2018-09-20T19:34:14.130Z,93980.66
2018-09-20T19:36:41.720Z,93974.95
2018-09-20T19:39:10.734Z,93971.39
2018-09-20T19:41:38.320Z,93971.77
2018-09-20T19:44:05.991Z,93970.63
2018-09-20T19:46:33.655Z,93967.81
2018-09-20T19:49:01.304Z,93961.92
2018-09-20T19:51:28.960Z,93963.83
2018-09-20T19:53:56.522Z,93965.98
2018-09-20T19:56:24.269Z,93960.06
2018-09-20T19:58:52.305Z,93960.49
2018-09-20T20:01:19.837Z,93959.87
2018-09-20T20:03:47.409Z,93953.09
2018-09-20T20:06:14.993Z,93956.11
2018-09-20T20:08:42.684Z,93963.28
2018-09-20T20:11:10.239Z,93961.59
2018-09-20T20:13:37.810Z,93952.23
2018-09-20T20:16:05.543Z,93950.38
2018-09-20T20:18:33.083Z,93947.42
2018-09-20T20:21:00.656Z,93950.25
2018-09-20T20:23:28.233Z,93951.73
2018-09-20T20:25:55.821Z,93945.08
2018-09-20T20:28:23.378Z,93946.89
2018-09-20T20:30:50.962Z,93944.89
2018-09-20T20:33:19.279Z,93941.97
2018-09-20T20:35:46.858Z,93941.63
2018-09-20T20:38:14.436Z,93938.03
2018-09-20T20:40:42.006Z,93934.90
2018-09-20T20:43:09.586Z,93935.48
2018-09-20T20:45:37.135Z,93936.34
2018-09-20T20:48:04.706Z,93935.38
2018-09-20T20:50:32.259Z,93935.94
2018-09-20T20:52:59.824Z,93933.00
2018-09-20T20:55:27.411Z,93930.92
2018-09-20T20:57:54.958Z,93930.62
2018-09-20T21:00:22.496Z,93931.59
2018-09-20T21:02:50.078Z,93930.95
2018-09-20T21:05:17.702Z,93929.77
2018-09-20T21:07:45.317Z,93925.95
2018-09-20T21:10:12.896Z,93921.78
2018-09-20T21:12:40.482Z,93924.91
2018-09-20T21:15:08.006Z,93920.53
2018-09-20T21:17:35.664Z,93922.57
2018-09-20T21:20:03.191Z,93915.20
2018-09-20T21:22:30.731Z,93909.10
2018-09-20T21:24:58.526Z,93901.48
2018-09-20T21:27:26.082Z,93903.73
2018-09-20T21:29:53.639Z,93902.48
2018-09-20T21:32:21.199Z,93902.84
2018-09-20T21:34:48.719Z,93900.71
2018-09-20T21:37:16.283Z,93899.80
2018-09-20T21:39:43.881Z,93899.53
2018-09-20T21:42:11.442Z,93899.53
2018-09-20T21:44:38.970Z,93897.03
2018-09-20T21:47:06.638Z,93893.05
2018-09-20T21:49:34.186Z,93884.20
2018-09-20T21:52:01.750Z,93878.81
2018-09-20T21:54:29.285Z,93882.58
2018-09-20T21:56:56.842Z,93882.15
2018-09-20T21:59:24.387Z,93879.90
2018-09-20T22:01:57.701Z,93876.87
2018-09-20T22:04:25.954Z,93875.34
2018-09-20T22:06:53.578Z,93880.36
2018-09-20T22:09:21.130Z,93877.01
2018-09-20T22:11:48.699Z,93868.73
2018-09-20T22:14:16.224Z,93870.23
2018-09-20T22:16:43.819Z,93866.05
2018-09-20T22:19:11.411Z,93869.65
2018-09-20T22:21:38.962Z,93866.82
2018-09-20T22:24:06.555Z,93864.44
2018-09-20T22:26:34.202Z,93859.23
2018-09-20T22:29:01.814Z,93856.88
2018-09-20T22:31:29.370Z,93856.95
2018-09-20T22:33:57.236Z,93850.41
2018-09-20T22:36:25.555Z,93859.05
2018-09-20T22:38:53.118Z,93849.81
2018-09-20T22:41:20.679Z,93845.39
2018-09-20T22:43:48.231Z,93842.66
2018-09-20T22:46:15.823Z,93844.27
2018-09-20T22:48:43.407Z,93838.91
2018-09-20T22:51:10.952Z,93839.20
2018-09-20T22:53:38.769Z,93836.59
2018-09-20T22:56:06.394Z,93829.09
2018-09-20T22:58:34.153Z,93829.58
2018-09-20T23:01:01.715Z,93830.70
2018-09-20T23:03:29.262Z,93825.55
2018-09-20T23:05:56.946Z,93825.09
2018-09-20T23:08:24.465Z,93824.05
2018-09-20T23:10:52.028Z,93819.08
2018-09-20T23:13:19.598Z,93817.39
2018-09-20T23:15:47.283Z,93818.05
2018-09-20T23:18:14.798Z,93819.27
2018-09-20T23:20:42.783Z,93821.53
2018-09-20T23:23:10.307Z,93821.53
2018-09-20T23:25:37.895Z,93816.42
2018-09-20T23:28:05.422Z,93814.91
2018-09-20T23:30:32.957Z,93815.48
2018-09-20T23:33:00.554Z,93821.92
2018-09-20T23:35:28.086Z,93818.48
2018-09-20T23:37:55.619Z,93816.52
2018-09-20T23:40:23.188Z,93814.02
2018-09-20T23:42:50.722Z,93815.05
2018-09-20T23:45:18.263Z,93812.55
2018-09-20T23:47:45.791Z,93811.57
2018-09-20T23:50:13.487Z,93804.73
2018-09-20T23:52:41.131Z,93806.34
2018-09-20T23:55:08.687Z,93806.35
2018-09-20T23:57:36.267Z,93804.37
